Aviation Digital Data Service (ADDS)

Output produced by METARs form (0237 UTC 22 July 2017)
found at http://www.aviationweather.gov/adds/metars/
 
FEFF 220200Z 00000KT CAVOK 24/23 Q1012 NOSIG
TAF FEFF 212300Z 2200/2306 VRB03KT CAVOK 
     TEMPO 2204/2206 3000 BR BKN003 
     BECMG 2209/2211 BKN013 FEW040CB 
     TEMPO 2213/2217 TS 
     BECMG 2219/2221 CAVOK